TFM - Tactical Decision Aid
ID: Runway Winds: CIG/VIS Threshold:

KLGA - New York/La Guardia, NY, US

Updated at: 1837 UTC 19 Aug 2019
Latest TAF at: 1721 UTC 19 Aug 2019

TAF Board

Time1751Z 19/19Z 19/20Z 19/21Z 19/22Z 19/23Z 20/00Z 20/01Z 20/02Z 20/03Z 20/04Z 20/05Z 20/06Z 20/07Z>>
Type OBS PRVL PRVL
  [TEMP]  
PRVL
  [TEMP]  
PRVL
  [TEMP]  
PRVL
  [TEMP]  
PRVL PRVL PRVL PRVL PRVL PRVL PRVL PRVL
VIS 10 >6 >6
  [2]  
>6
  [2]  
>6
  [2]  
>6
  [2]  
>6 >6 >6 >6 >6 >6 >6 >6
CIG -- -- --
  [40]  
--
  [40]  
--
  [40]  
--
  [40]  
-- -- -- -- -- -- -- --
Cover FEW SCT SCT
  [BKN]  
SCT
  [BKN]  
SCT
  [BKN]  
SCT
  [BKN]  
SCT SCT SCT SCT SCT FEW FEW FEW
FltCat VFR VFR VFR
  [IFR]  
VFR
  [IFR]  
VFR
  [IFR]  
VFR
  [IFR]  
VFR VFR VFR VFR VFR VFR VFR VFR
WX -- -- VCTS
  [TSRA]  
VCTS
  [TSRA]  
VCTS
  [TSRA]  
VCTS
  [TSRA]  
-- -- -- -- -- -- -- --
WDir 210 230 230
[270]
230
[270]
230
[270]
230
[270]
240 240 240 240 240 320 320 10
WSpd 9 11 10
  [20]  
10
  [20]  
10
  [20]  
10
  [20]  
6 6 6 6 6 5 5 6
WGst -- -- --
  [35]  
--
  [35]  
--
  [35]  
--
  [35]  
-- -- -- -- -- -- -- --

TDA Impact Legend

  None Marginal Slight Moderate High
Visibility (sm) >5 3≤X≤5 1≤X<3 0.5≤X<1 <0.5
Ceiling (100 ft) >30 10≤X≤30 4≤X<10 2≤X<4 <2
Wind Speed (kt) <15 15≤X<25 25≤X<30 ≥30
Wind Gust (kt) <15 15≤X<25 25≤X<35 ≥35
Weather No Wx Reported VCTS -TS,-FZRA TS,FZRA +TS,+FZRA
TAF
KLGA 191721Z 1918/2024 23011KT P6SM SCT040
  FM192000 23010KT P6SM VCTS SCT040CB SCT100 SCT250
  TEMPO 1920/1924 27020G35KT 2SM TSRA BKN040CB
  FM200000 24006KT P6SM SCT040
  FM200500 32005KT P6SM FEW040
  FM200700 01006KT P6SM FEW040
  FM201000 04008KT P6SM FEW040
  FM202000 VRB05KT P6SM SCT040
  FM202100 16007KT P6SM SCT040


METAR
KLGA 191751Z 21009KT 10SM FEW040 FEW250 33/20 A2996 RMK AO2 SLP143 T03280200 10333 20250 58008
KLGA 191651Z 23012KT 10SM FEW035 FEW250 32/21 A2997 RMK AO2 SLP148 T03220206
KLGA 191551Z 28005KT 10SM FEW032 FEW250 31/22 A2997 RMK AO2 SLP149 T03060217

Radar Display
Forecast Discussion